Time;durP1;ratioP1;P1;durP2;ratioP2;P2;SDS_P1;SDS_P2;PMS_P1;PMS_P2;Temp;Humidity;BMP_temperature;BMP_pressure;BME280_temperature;BME280_humidity;BME280_pressure;Samples;Min_cycle;Max_cycle;Signal;HPM_P1;HPM_P2
2023/07/20 00:04:23;;;;;;;4.70;2.40;;;24.00;81.70;;;23.17;67.58;99391.00;10418793;27;96839;-85
2023/07/20 00:09:27;;;;;;;6.38;2.58;;;24.00;81.80;;;23.04;67.86;99391.56;10455873;27;96526;-86
2023/07/20 00:14:31;;;;;;;4.72;2.30;;;23.90;82.10;;;22.90;68.79;99385.81;10417446;27;96669;-86
2023/07/20 00:19:35;;;;;;;4.97;2.00;;;23.70;82.60;;;22.73;68.90;99379.78;10452855;27;97454;-86
2023/07/20 00:24:39;;;;;;;5.03;2.45;;;23.60;83.30;;;22.69;68.83;99368.69;10428875;27;98797;-86
2023/07/20 00:29:43;;;;;;;9.02;2.67;;;23.50;83.30;;;22.62;68.24;99366.25;10434903;27;96715;-86
2023/07/20 00:34:47;;;;;;;6.05;2.83;;;23.50;83.00;;;22.67;68.56;99363.56;10416295;27;98417;-86
2023/07/20 00:39:53;;;;;;;4.65;2.42;;;23.50;83.10;;;22.66;68.57;99370.03;10440314;27;97365;-86
2023/07/20 00:44:56;;;;;;;6.55;2.25;;;23.50;82.90;;;22.57;68.78;99371.66;10434613;27;96703;-86
2023/07/20 00:50:00;;;;;;;6.60;2.60;;;23.40;83.00;;;22.43;69.30;99370.50;10428096;27;96533;-86
2023/07/20 00:55:07;;;;;;;8.52;2.15;;;23.30;83.40;;;22.34;69.73;99374.81;10451799;27;96579;-86
2023/07/20 01:00:11;;;;;;;4.40;2.65;;;23.20;83.80;;;22.25;70.16;99363.69;10439923;27;97388;-86
2023/07/20 01:05:18;;;;;;;7.38;3.05;;;23.10;84.00;;;22.13;70.55;99358.50;10452544;27;97221;-86
2023/07/20 01:10:33;;;;;;;6.07;2.60;;;23.00;84.30;;;22.04;71.33;99357.34;10443081;27;96701;-86
2023/07/20 01:15:38;;;;;;;5.10;2.55;;;22.90;84.60;;;21.90;71.83;99348.88;10457635;27;96929;-86
2023/07/20 01:20:42;;;;;;;5.50;2.60;;;22.80;85.00;;;21.80;72.18;99350.72;10407801;27;96662;-86
2023/07/20 01:26:33;;;;;;;3.60;2.30;;;22.70;85.50;;;21.67;72.61;99341.19;10426430;27;96743;-86
2023/07/20 01:31:38;;;;;;;6.97;2.78;;;22.60;85.70;;;21.64;72.38;99342.50;10419421;27;96584;-86
2023/07/20 01:36:44;;;;;;;4.78;2.60;;;22.60;85.80;;;21.65;72.47;99359.53;10443741;27;97090;-85
2023/07/20 01:41:47;;;;;;;6.32;2.55;;;22.60;86.00;;;21.64;72.87;99345.19;10430892;27;98925;-85
2023/07/20 01:46:51;;;;;;;3.58;2.05;;;22.60;86.00;;;21.63;72.57;99349.00;10447178;27;97364;-86
2023/07/20 01:51:55;;;;;;;5.90;2.45;;;22.60;86.00;;;21.60;73.09;99363.03;10450155;27;97232;-86
2023/07/20 01:56:58;;;;;;;7.88;2.60;;;22.50;86.00;;;21.53;73.19;99350.81;10445516;27;96730;-86
2023/07/20 02:02:02;;;;;;;3.28;2.05;;;22.40;86.10;;;21.44;72.39;99344.28;10429471;27;96661;-86
2023/07/20 02:07:06;;;;;;;8.65;2.08;;;22.40;86.00;;;21.38;71.36;99365.03;10457850;27;96587;-86
2023/07/20 02:12:10;;;;;;;4.68;2.10;;;22.30;85.40;;;21.33;70.74;99381.22;10449929;27;96469;-86
2023/07/20 02:17:14;;;;;;;3.58;2.17;;;22.30;85.00;;;21.31;70.99;99391.47;10441164;27;97354;-86
2023/07/20 02:22:19;;;;;;;6.40;2.10;;;22.20;84.90;;;21.30;71.09;99403.34;10440190;27;97426;-86
2023/07/20 02:27:22;;;;;;;3.75;2.33;;;22.30;85.10;;;21.32;70.98;99399.31;10430550;27;98035;-86
2023/07/20 02:32:26;;;;;;;4.13;2.33;;;22.30;85.00;;;21.31;70.89;99410.38;10462720;27;96810;-86
2023/07/20 02:37:30;;;;;;;4.55;2.70;;;22.30;85.00;;;21.30;71.18;99424.97;10414690;27;96506;-86
2023/07/20 02:42:33;;;;;;;4.50;2.13;;;22.30;85.20;;;21.20;71.55;99405.94;10448007;27;97871;-85
2023/07/20 02:47:37;;;;;;;4.20;2.63;;;22.20;85.20;;;21.18;71.73;99403.50;10466003;27;96504;-86
2023/07/20 02:52:41;;;;;;;4.18;2.47;;;22.10;85.50;;;21.17;71.89;99401.88;10424232;28;96497;-86
2023/07/20 02:57:44;;;;;;;5.28;2.67;;;22.20;85.70;;;21.14;71.75;99398.84;10440218;27;96722;-85
2023/07/20 03:02:52;;;;;;;3.90;2.33;;;22.10;85.40;;;21.13;71.03;99399.94;10435535;27;96749;-86
2023/07/20 03:07:56;;;;;;;5.13;2.30;;;22.10;85.30;;;21.17;70.99;99412.66;10452785;27;98718;-86
2023/07/20 03:13:00;;;;;;;4.95;2.90;;;22.10;85.10;;;21.18;70.50;99424.28;10442111;27;96623;-86
2023/07/20 03:18:28;;;;;;;5.10;2.50;;;22.10;84.80;;;21.11;70.78;99411.81;10428685;27;96602;-86
2023/07/20 03:23:32;;;;;;;5.43;2.72;;;22.20;84.80;;;21.20;70.78;99427.53;10448596;27;97416;-86
2023/07/20 03:28:37;;;;;;;4.30;2.63;;;22.20;84.80;;;21.22;72.06;99426.19;10449654;27;96756;-86
2023/07/20 03:33:42;;;;;;;5.65;2.65;;;22.20;85.60;;;21.25;72.95;99431.09;10445410;27;97933;-85
2023/07/20 03:38:46;;;;;;;5.70;3.10;;;22.20;86.10;;;21.32;73.11;99436.34;10440153;27;96691;-85
2023/07/20 03:43:50;;;;;;;7.88;3.08;;;22.30;86.30;;;21.44;73.22;99445.09;10439830;27;98412;-86
2023/07/20 03:48:53;;;;;;;6.22;2.72;;;22.40;86.40;;;21.54;73.76;99445.19;10446717;27;97461;-85
2023/07/20 03:53:59;;;;;;;3.63;2.40;;;22.50;87.00;;;21.58;74.26;99442.75;10460367;27;98111;-84
2023/07/20 03:59:03;;;;;;;5.47;2.78;;;22.60;87.20;;;21.55;74.63;99435.19;10440021;27;97715;-85
2023/07/20 04:04:08;;;;;;;6.18;2.70;;;22.50;87.40;;;21.65;73.85;99448.75;10430463;27;98050;-86
2023/07/20 04:09:12;;;;;;;6.43;2.92;;;22.60;87.00;;;21.68;73.64;99442.84;10437812;27;97247;-86
2023/07/20 04:14:17;;;;;;;4.68;2.33;;;22.70;87.00;;;21.72;72.13;99446.66;10411141;27;96775;-86
2023/07/20 04:19:20;;;;;;;6.32;2.47;;;22.70;86.30;;;21.70;71.89;99432.56;10401716;27;96590;-86
2023/07/20 04:24:24;;;;;;;6.13;2.92;;;22.70;86.40;;;21.71;73.93;99422.56;10422247;27;98318;-86
2023/07/20 04:29:28;;;;;;;6.20;3.08;;;22.70;87.50;;;21.66;75.26;99415.25;10422154;27;97139;-86
2023/07/20 04:34:32;;;;;;;6.38;3.22;;;22.60;88.20;;;21.67;75.63;99430.41;10457556;27;98968;-86
2023/07/20 04:39:35;;;;;;;8.38;3.50;;;22.60;88.60;;;21.67;76.10;99437.72;10439726;27;96760;-87
2023/07/20 04:44:39;;;;;;;7.20;2.92;;;22.60;88.90;;;21.68;76.90;99428.50;10419626;27;97332;-86
2023/07/20 04:49:43;;;;;;;7.32;3.10;;;22.60;89.50;;;21.77;76.92;99429.66;10417472;27;96667;-85
2023/07/20 04:54:46;;;;;;;7.22;3.40;;;22.70;89.40;;;21.89;74.48;99430.25;10456927;27;96627;-85
2023/07/20 04:59:50;;;;;;;3.92;2.90;;;22.80;88.20;;;22.12;67.39;99431.78;10418577;27;96840;-85
2023/07/20 05:04:53;;;;;;;4.63;2.72;;;23.00;85.20;;;22.37;63.06;99431.09;10437290;27;97972;-86
2023/07/20 05:09:58;;;;;;;4.78;2.88;;;23.20;81.80;;;22.60;61.06;99437.97;10451032;27;96591;-85
2023/07/20 05:15:03;;;;;;;5.32;2.80;;;23.40;79.10;;;22.73;59.14;99429.38;10478604;27;97769;-85
2023/07/20 05:20:10;;;;;;;5.70;2.72;;;23.60;77.40;;;22.87;57.90;99435.13;10428452;27;97439;-84
2023/07/20 05:25:14;;;;;;;5.43;2.75;;;23.70;76.10;;;22.98;58.08;99428.66;10457471;27;96941;-84
2023/07/20 05:30:18;;;;;;;3.70;2.70;;;23.80;76.20;;;23.09;58.03;99437.59;10441349;27;97205;-84
2023/07/20 05:35:22;;;;;;;3.78;2.47;;;23.90;76.00;;;23.23;57.49;99446.84;10446739;27;97368;-84
2023/07/20 05:40:26;;;;;;;4.38;2.60;;;24.00;75.70;;;23.36;56.81;99448.22;10443572;27;96906;-84
2023/07/20 05:45:29;;;;;;;5.22;2.85;;;24.10;74.90;;;23.47;54.71;99455.28;10427628;27;97111;-84
2023/07/20 05:50:33;;;;;;;4.97;2.78;;;24.20;73.70;;;23.54;54.67;99461.25;10465853;27;98554;-85
2023/07/20 05:55:36;;;;;;;4.05;2.92;;;24.30;73.20;;;23.58;54.39;99461.53;10473554;27;96586;-84
2023/07/20 06:00:40;;;;;;;7.35;3.83;;;24.30;72.80;;;23.67;55.39;99454.47;10446555;27;97418;-83
2023/07/20 06:05:44;;;;;;;9.20;3.03;;;24.40;73.60;;;23.79;55.00;99454.22;10458618;27;96606;-84
2023/07/20 06:10:53;;;;;;;4.15;2.67;;;24.50;73.50;;;23.91;55.18;99465.59;10449475;27;96656;-84
2023/07/20 06:15:57;;;;;;;5.20;2.50;;;24.70;73.60;;;24.04;56.01;99476.69;10449110;27;96702;-84
2023/07/20 06:21:01;;;;;;;7.60;2.75;;;24.80;73.90;;;24.14;56.22;99478.59;10469381;27;96575;-84
2023/07/20 06:26:07;;;;;;;5.82;3.13;;;24.90;74.30;;;24.28;54.07;99481.53;10458991;27;96802;-85
2023/07/20 06:31:11;;;;;;;6.95;3.03;;;25.10;73.00;;;24.35;53.01;99471.25;10427170;27;96508;-84
2023/07/20 06:36:18;;;;;;;7.07;2.65;;;25.10;72.10;;;24.46;52.50;99486.41;10437975;27;96564;-85
2023/07/20 06:41:22;;;;;;;5.88;2.67;;;25.30;71.10;;;24.53;51.20;99481.50;10428714;27;96760;-85
2023/07/20 06:46:29;;;;;;;3.50;2.63;;;25.30;70.30;;;24.60;51.07;99489.34;10469139;27;97491;-85
2023/07/20 06:51:33;;;;;;;5.53;3.17;;;25.40;70.00;;;24.66;50.78;99501.84;10446937;27;96867;-85
2023/07/20 06:56:36;;;;;;;5.55;2.63;;;25.40;69.60;;;24.75;50.62;99499.34;10436013;27;98064;-85
2023/07/20 07:01:40;;;;;;;4.22;2.33;;;25.50;69.50;;;24.83;48.83;99504.22;10457039;27;97930;-85
2023/07/20 07:06:44;;;;;;;4.78;2.75;;;25.60;68.30;;;24.89;49.66;99502.25;10473698;27;97339;-86
2023/07/20 07:11:48;;;;;;;5.78;2.55;;;25.70;68.40;;;25.01;48.38;99510.91;10425651;27;98204;-85
2023/07/20 07:16:51;;;;;;;5.85;2.80;;;25.70;67.50;;;25.15;48.85;99503.81;10460477;27;96524;-84
2023/07/20 07:22:00;;;;;;;6.38;2.78;;;25.90;67.70;;;25.21;47.95;99499.97;10446898;27;97930;-85
2023/07/20 07:27:05;;;;;;;7.22;2.78;;;26.00;66.80;;;25.25;48.36;99505.63;10446871;27;98118;-85
2023/07/20 07:32:10;;;;;;;4.45;2.30;;;26.00;67.10;;;25.38;48.55;99493.34;10461140;27;96534;-87
2023/07/20 07:37:14;;;;;;;6.07;2.15;;;26.10;67.80;;;25.55;47.33;99491.84;10445788;27;96852;-87
2023/07/20 07:42:18;;;;;;;8.98;2.88;;;26.30;66.60;;;25.70;47.57;99490.09;10445392;27;96698;-86
2023/07/20 07:47:22;;;;;;;5.85;2.38;;;26.40;66.60;;;25.61;45.17;99489.91;10440852;27;97606;-86
2023/07/20 07:52:26;;;;;;;6.20;2.60;;;26.40;64.30;;;25.44;45.20;99500.38;10436225;27;96642;-86
2023/07/20 07:57:29;;;;;;;6.32;2.40;;;26.20;64.10;;;25.42;46.32;99499.81;10445448;27;96508;-85
2023/07/20 08:02:33;;;;;;;5.65;2.42;;;26.20;65.00;;;25.36;46.81;99501.75;10462921;27;96736;-86
2023/07/20 08:07:37;;;;;;;4.03;2.45;;;26.20;65.50;;;25.30;46.74;99506.41;10441938;27;97282;-85
2023/07/20 08:12:41;;;;;;;3.45;2.38;;;26.10;65.10;;;25.26;47.21;99515.44;10434503;27;97475;-84
2023/07/20 08:17:44;;;;;;;4.70;2.13;;;26.00;65.60;;;25.19;47.55;99518.47;10448290;27;97400;-85
2023/07/20 08:22:48;;;;;;;3.63;2.50;;;26.00;66.00;;;25.11;45.63;99515.50;10445518;27;96555;-86
2023/07/20 08:27:52;;;;;;;5.13;2.10;;;25.90;64.60;;;25.00;46.54;99514.72;10441728;27;97048;-86
2023/07/20 08:32:55;;;;;;;4.60;2.58;;;25.80;64.90;;;24.97;46.99;99510.66;10425944;27;96593;-86
2023/07/20 08:37:59;;;;;;;7.90;2.17;;;25.70;65.40;;;24.95;47.34;99518.28;10429531;27;96831;-86
2023/07/20 08:43:06;;;;;;;4.45;2.00;;;25.70;65.50;;;25.02;47.15;99529.66;10439239;27;97470;-86
2023/07/20 08:48:12;;;;;;;5.30;2.35;;;25.70;65.60;;;25.13;47.29;99524.19;10426502;27;97801;-84
2023/07/20 08:53:16;;;;;;;6.03;2.58;;;25.90;66.40;;;25.13;44.96;99535.06;10448044;27;96554;-85
2023/07/20 08:58:20;;;;;;;4.78;2.17;;;25.90;63.80;;;25.05;43.66;99541.91;10458991;27;96740;-87
2023/07/20 09:03:24;;;;;;;4.47;1.80;;;25.80;62.50;;;24.98;44.51;99549.53;10422101;28;96736;-85
2023/07/20 09:08:27;;;;;;;5.53;2.00;;;25.80;63.20;;;24.93;44.12;99565.84;10431970;27;96623;-86
2023/07/20 09:13:35;;;;;;;6.53;2.30;;;25.70;62.60;;;24.86;45.52;99574.28;10405104;28;96627;-86
2023/07/20 09:18:38;;;;;;;4.65;2.03;;;25.60;63.70;;;24.85;45.62;99572.66;10429161;27;96518;-85
2023/07/20 09:23:42;;;;;;;4.57;2.00;;;25.60;63.80;;;24.86;45.62;99571.56;10444743;27;96580;-85
2023/07/20 09:28:52;;;;;;;7.15;2.78;;;25.60;63.80;;;24.92;44.91;99586.78;10446374;27;96613;-84
2023/07/20 09:33:57;;;;;;;2.28;1.60;;;25.70;63.20;;;24.98;44.91;99571.25;10427720;27;96645;-85
2023/07/20 09:39:04;;;;;;;4.57;2.13;;;25.70;63.20;;;25.10;45.28;99569.06;10457935;27;96954;-85
2023/07/20 09:44:10;;;;;;;3.92;2.00;;;25.90;63.50;;;25.22;45.37;99566.84;10446351;27;96649;-85
2023/07/20 09:49:20;;;;;;;4.85;1.90;;;26.00;63.40;;;25.35;44.78;99559.97;10444894;27;96583;-85
2023/07/20 09:54:28;;;;;;;3.40;2.15;;;26.10;63.20;;;25.57;44.43;99546.78;10464280;27;96700;-84
2023/07/20 09:59:32;;;;;;;2.85;1.55;;;26.30;63.00;;;25.74;43.74;99551.88;10427866;27;96737;-85
2023/07/20 10:04:37;;;;;;;7.32;1.90;;;26.50;62.40;;;25.84;43.25;99556.41;10422688;27;97236;-85
2023/07/20 10:09:44;;;;;;;4.32;1.70;;;26.60;62.00;;;25.85;42.47;99558.84;10423458;27;96629;-85
2023/07/20 10:15:08;;;;;;;3.97;1.63;;;26.60;61.10;;;25.97;42.28;99560.38;10409043;28;96655;-84
2023/07/20 10:20:12;;;;;;;6.90;1.77;;;26.70;60.80;;;26.36;41.63;99535.78;10419576;28;96463;-85
2023/07/20 10:25:18;;;;;;;2.60;1.40;;;27.10;60.70;;;26.99;40.27;99549.28;10432919;27;98804;-85
2023/07/20 10:30:22;;;;;;;2.35;1.50;;;27.70;59.50;;;27.48;38.56;99553.56;10451607;27;96503;-85
2023/07/20 10:35:26;;;;;;;3.67;1.40;;;28.20;58.30;;;27.80;37.25;99552.00;10394712;28;96475;-86
2023/07/20 10:40:39;;;;;;;4.50;1.70;;;28.60;56.60;;;28.08;36.77;99559.19;10437536;27;97643;-85
2023/07/20 10:45:52;;;;;;;3.47;1.63;;;28.90;55.90;;;28.27;37.12;99567.34;10457716;27;96488;-85
2023/07/20 10:51:14;;;;;;;5.22;1.60;;;29.10;55.80;;;28.49;36.90;99569.44;10439346;27;96570;-84
2023/07/20 10:56:22;;;;;;;4.03;1.63;;;29.30;55.70;;;28.75;37.17;99567.81;10418864;28;96412;-84
2023/07/20 11:01:31;;;;;;;;;;;29.50;56.10;;;28.85;36.23;99557.78;10440546;27;96572;-85
2023/07/20 11:06:38;;;;;;;6.88;1.40;;;29.70;54.80;;;29.04;36.89;99551.13;10445270;27;96714;-84
2023/07/20 11:11:48;;;;;;;5.40;1.52;;;29.80;56.10;;;29.20;35.09;99546.13;10444203;27;98001;-84
2023/07/20 11:16:53;;;;;;;3.67;1.50;;;30.00;54.50;;;29.25;34.39;99553.41;10432619;27;96709;-85
2023/07/20 11:21:58;;;;;;;4.65;1.70;;;30.10;53.70;;;29.23;32.95;99558.41;10458435;27;96642;-86
2023/07/20 11:27:08;;;;;;;4.03;1.58;;;30.10;52.40;;;29.15;34.11;99538.06;10429135;27;96522;-85
2023/07/20 11:32:11;;;;;;;2.53;1.50;;;30.00;52.80;;;29.19;33.88;99539.03;10420536;27;96406;-85
2023/07/20 11:37:17;;;;;;;5.43;1.60;;;30.00;52.60;;;29.41;34.63;99534.75;10408134;27;96675;-85
2023/07/20 11:42:20;;;;;;;6.88;2.25;;;30.20;53.30;;;29.55;33.94;99536.34;10439702;27;96495;-86
2023/07/20 11:47:29;;;;;;;2.33;1.40;;;30.40;53.00;;;29.65;31.18;99561.88;10418658;27;96770;-85
2023/07/20 11:52:34;;;;;;;3.15;1.55;;;30.50;50.60;;;29.62;31.48;99546.03;10422489;27;96536;-85
2023/07/20 11:57:38;;;;;;;5.45;1.60;;;30.50;50.60;;;29.63;32.73;99550.41;10441568;27;96444;-86
2023/07/20 12:02:43;;;;;;;4.18;1.80;;;30.50;51.10;;;29.73;32.60;99533.72;10440759;27;96441;-85
2023/07/20 12:07:49;;;;;;;7.10;1.70;;;30.60;51.40;;;29.92;30.91;99542.56;10440308;27;96566;-85
2023/07/20 12:12:54;;;;;;;6.28;1.50;;;30.80;50.40;;;29.73;30.65;99548.22;10436226;27;96559;-85
2023/07/20 12:18:01;;;;;;;4.15;1.20;;;30.60;49.30;;;29.77;30.95;99534.75;10400079;28;96529;-85
2023/07/20 12:23:13;;;;;;;3.63;1.60;;;30.70;49.70;;;29.95;31.29;99533.72;10381992;27;96528;-85
2023/07/20 12:28:20;;;;;;;3.95;1.63;;;31.00;49.60;;;30.06;30.15;99539.78;10399908;28;96536;-85
2023/07/20 12:33:24;;;;;;;3.55;1.50;;;31.20;48.80;;;29.90;30.56;99536.59;10417758;27;97630;-85
2023/07/20 12:38:30;;;;;;;3.08;1.48;;;31.00;48.80;;;29.98;30.91;99533.09;10412211;27;96555;-86
2023/07/20 12:43:34;;;;;;;3.55;1.48;;;31.10;49.20;;;30.30;30.49;99523.00;10411305;27;97817;-87
2023/07/20 12:48:40;;;;;;;4.47;1.40;;;31.50;49.00;;;30.49;28.99;99528.25;10455446;27;96728;-87
2023/07/20 12:53:44;;;;;;;3.83;1.45;;;31.70;47.80;;;30.04;27.73;99525.56;10444590;27;97166;-87
2023/07/20 12:58:49;;;;;;;2.75;1.17;;;31.10;46.10;;;29.97;28.19;99534.22;10423717;27;96468;-87
2023/07/20 13:03:54;;;;;;;3.83;1.38;;;31.10;46.50;;;30.41;28.13;99516.13;10415120;27;97949;-86
2023/07/20 13:09:01;;;;;;;2.37;1.50;;;31.70;46.40;;;30.71;28.56;99528.22;10457422;27;96650;-86
2023/07/20 13:14:05;;;;;;;5.80;1.75;;;32.10;46.60;;;30.23;28.69;99528.94;10439526;27;96758;-87
2023/07/20 13:19:09;;;;;;;1.95;1.23;;;31.50;46.40;;;30.14;29.50;99524.53;10438929;27;97386;-86
2023/07/20 13:24:12;;;;;;;6.57;1.60;;;31.30;47.30;;;30.21;29.42;99516.66;10431305;27;98432;-85
2023/07/20 13:29:17;;;;;;;3.20;1.40;;;31.40;47.30;;;30.44;29.69;99504.53;10421890;27;96559;-86
2023/07/20 13:34:21;;;;;;;3.97;1.30;;;31.50;47.80;;;30.86;29.05;99502.25;10447121;27;96788;-86
2023/07/20 13:39:27;;;;;;;1.95;1.23;;;31.90;47.40;;;31.19;28.73;99510.88;10438964;27;98065;-86
2023/07/20 13:44:33;;;;;;;1.83;1.25;;;31.90;47.10;;;31.43;27.63;99508.50;10474335;27;96648;-85
2023/07/20 13:49:37;;;;;;;4.10;1.23;;;32.00;46.60;;;31.37;27.21;99522.72;10445841;27;96561;-85
2023/07/20 13:54:50;;;;;;;1.45;0.98;;;31.90;46.20;;;31.34;27.90;99496.69;10421584;27;97356;-86
2023/07/20 13:59:59;;;;;;;2.38;1.33;;;31.80;46.70;;;31.38;27.45;99499.63;10447224;27;96494;-86
2023/07/20 14:05:05;;;;;;;4.03;1.13;;;31.80;46.40;;;31.36;27.87;99510.09;10446941;27;98156;-86
2023/07/20 14:10:11;;;;;;;6.13;1.65;;;31.80;46.50;;;30.99;27.95;99506.78;10432029;27;96658;-86
2023/07/20 14:15:18;;;;;;;2.55;1.20;;;31.50;46.20;;;30.80;28.25;99509.03;10425634;27;96564;-86
2023/07/20 14:20:22;;;;;;;1.83;1.10;;;31.40;46.70;;;30.60;29.51;99516.69;10441539;27;96554;-86
2023/07/20 14:25:26;;;;;;;2.50;1.30;;;31.30;47.30;;;30.16;29.55;99512.13;10450336;27;96508;-86
2023/07/20 14:30:32;;;;;;;1.90;1.20;;;31.00;47.30;;;29.90;30.08;99514.69;10440050;27;97197;-87
2023/07/20 14:35:35;;;;;;;1.60;1.23;;;30.70;48.10;;;30.29;30.53;99515.91;10433542;27;96733;-87
2023/07/20 14:40:39;;;;;;;3.67;1.50;;;31.00;48.30;;;30.37;30.47;99513.19;10432995;27;96701;-87
2023/07/20 14:45:43;;;;;;;2.40;1.52;;;31.30;47.90;;;30.11;30.00;99521.31;10443059;27;96406;-86
2023/07/20 14:50:47;;;;;;;4.68;1.20;;;31.20;47.60;;;29.96;30.63;99498.94;10435935;27;96534;-86
2023/07/20 14:55:50;;;;;;;3.38;1.23;;;31.00;48.20;;;30.30;30.64;99507.38;10402025;27;96565;-86
2023/07/20 15:00:54;;;;;;;2.30;1.23;;;31.50;48.30;;;30.32;30.35;99507.03;10436799;27;96554;-86
2023/07/20 15:05:58;;;;;;;2.25;1.10;;;31.50;48.00;;;30.54;29.99;99506.97;10446637;27;96905;-86
2023/07/20 15:11:02;;;;;;;3.33;1.00;;;31.70;47.90;;;31.07;28.62;99506.03;10448187;27;96619;-87
2023/07/20 15:16:06;;;;;;;3.10;1.13;;;32.10;47.30;;;31.52;28.62;99494.75;10443007;27;96429;-86
2023/07/20 15:21:09;;;;;;;2.10;1.17;;;32.60;46.90;;;31.89;27.15;99501.50;10442360;27;96629;-86
2023/07/20 15:26:13;;;;;;;1.17;0.90;;;33.00;45.80;;;32.02;26.99;99504.38;10443817;27;97415;-85
2023/07/20 15:31:17;;;;;;;3.08;1.02;;;33.20;45.00;;;32.32;26.69;99502.50;10436717;27;97417;-86
2023/07/20 15:36:22;;;;;;;3.83;1.23;;;33.50;45.00;;;32.36;26.03;99509.00;10446267;27;97255;-86
2023/07/20 15:41:28;;;;;;;2.88;1.20;;;33.60;44.10;;;32.47;26.11;99499.25;10430366;27;96927;-86
2023/07/20 15:46:40;;;;;;;3.25;1.20;;;33.60;44.40;;;32.58;25.33;99507.94;10438238;27;97364;-86
2023/07/20 15:51:46;;;;;;;3.28;1.13;;;33.70;43.80;;;32.62;25.24;99517.94;10433782;27;96557;-86
2023/07/20 15:56:50;;;;;;;2.13;0.98;;;33.70;43.70;;;32.50;25.39;99518.63;10430633;27;96713;-86
2023/07/20 16:01:54;;;;;;;3.63;1.17;;;33.60;43.70;;;32.56;26.23;99522.00;10439982;27;97147;-86
2023/07/20 16:06:58;;;;;;;4.10;1.10;;;33.50;44.20;;;32.61;26.07;99513.56;10428394;27;97424;-87
2023/07/20 16:12:03;;;;;;;3.92;1.30;;;33.50;44.30;;;32.14;26.03;99518.25;10438144;27;96791;-86
2023/07/20 16:17:07;;;;;;;2.80;1.20;;;33.00;44.00;;;31.64;26.68;99514.13;10441290;27;96627;-86
2023/07/20 16:22:11;;;;;;;1.63;1.02;;;32.50;44.70;;;31.02;27.70;99511.66;10434280;27;98509;-85
2023/07/20 16:27:16;;;;;;;2.60;1.20;;;31.80;45.30;;;30.39;29.00;99510.13;10433037;27;98809;-86
2023/07/20 16:32:20;;;;;;;3.20;1.13;;;31.20;46.30;;;30.01;29.04;99532.47;10431445;27;96752;-87
2023/07/20 16:37:24;;;;;;;4.93;1.20;;;30.80;46.60;;;29.81;29.94;99531.06;10436668;27;97308;-86
2023/07/20 16:42:32;;;;;;;3.67;1.20;;;30.60;47.10;;;29.65;30.28;99534.50;10415506;27;96662;-86
2023/07/20 16:47:38;;;;;;;1.70;1.10;;;30.40;47.50;;;29.30;30.87;99537.69;10405591;27;98064;-86
2023/07/20 16:52:42;;;;;;;2.67;1.10;;;30.10;47.60;;;29.00;31.62;99539.19;10455648;27;96524;-86
2023/07/20 16:57:46;;;;;;;2.95;1.58;;;29.80;48.40;;;28.89;32.30;99548.69;10433375;27;96549;-86
2023/07/20 17:02:50;;;;;;;2.38;1.10;;;29.60;49.00;;;28.75;32.39;99537.75;10445792;27;96658;-85
2023/07/20 17:07:55;;;;;;;2.80;1.60;;;29.50;49.20;;;28.62;33.20;99540.50;10451792;27;96671;-85
2023/07/20 17:12:58;;;;;;;4.30;1.05;;;29.30;49.60;;;28.37;33.31;99534.41;10442345;27;97631;-86
2023/07/20 17:18:02;;;;;;;2.22;1.30;;;29.10;50.00;;;28.06;33.74;99545.00;10446909;27;96687;-86
2023/07/20 17:23:06;;;;;;;4.82;1.27;;;28.80;50.50;;;27.77;34.95;99538.94;10429389;27;97200;-85
2023/07/20 17:28:10;;;;;;;3.67;1.13;;;28.50;51.20;;;27.51;35.44;99555.69;10451756;27;96723;-85
2023/07/20 17:33:17;;;;;;;2.08;1.10;;;28.20;51.70;;;27.28;36.04;99556.56;10442131;27;96658;-85
2023/07/20 17:38:23;;;;;;;4.90;1.40;;;28.00;52.10;;;27.09;36.58;99572.91;10416377;27;96668;-85
2023/07/20 17:43:31;;;;;;;3.55;1.40;;;27.80;52.70;;;26.89;37.09;99579.41;10440667;27;97004;-85
2023/07/20 17:48:34;;;;;;;4.75;1.30;;;27.60;53.30;;;26.74;37.85;99580.38;10427336;27;96650;-85
2023/07/20 17:53:38;;;;;;;2.92;1.20;;;27.50;53.80;;;26.59;38.31;99577.81;10431583;27;96571;-85
2023/07/20 17:58:42;;;;;;;3.67;1.20;;;27.30;54.10;;;26.44;38.68;99581.50;10461824;27;96656;-85
2023/07/20 18:03:45;;;;;;;7.43;1.25;;;27.20;54.70;;;26.27;39.29;99578.34;10470618;27;98202;-86
2023/07/20 18:08:49;;;;;;;5.20;1.50;;;27.00;55.10;;;26.11;39.91;99572.25;10457409;27;96634;-85
2023/07/20 18:13:53;;;;;;;3.28;1.75;;;26.90;55.50;;;26.02;40.45;99576.66;10437088;27;98072;-85
2023/07/20 18:18:57;;;;;;;3.92;1.67;;;26.80;55.90;;;25.93;40.64;99578.41;10425631;27;96666;-86
2023/07/20 18:24:00;;;;;;;2.42;1.40;;;26.70;56.20;;;25.79;40.78;99591.81;10439208;27;97100;-85
2023/07/20 18:29:04;;;;;;;2.60;1.50;;;26.60;56.50;;;25.66;42.11;99592.41;10425765;27;96795;-86
2023/07/20 18:34:07;;;;;;;6.43;1.92;;;26.40;57.10;;;25.46;42.66;99596.88;10436676;27;97484;-86
2023/07/20 18:39:12;;;;;;;2.63;1.67;;;26.20;57.80;;;25.28;43.05;99606.50;10426981;27;97665;-86
2023/07/20 18:44:15;;;;;;;3.85;1.30;;;26.10;58.10;;;25.03;42.77;99614.72;10423766;27;96637;-86
2023/07/20 18:49:19;;;;;;;3.95;1.40;;;25.80;58.10;;;24.77;43.42;99611.25;10427267;27;98433;-86
2023/07/20 18:54:23;;;;;;;3.35;1.55;;;25.60;58.40;;;24.60;43.50;99614.31;10403784;27;96696;-86
2023/07/20 18:59:26;;;;;;;2.47;1.60;;;25.40;58.80;;;24.36;44.07;99624.13;10430378;27;97287;-86
2023/07/20 19:04:30;;;;;;;2.15;1.23;;;25.20;59.70;;;24.22;44.40;99631.94;10408379;27;97156;-87
2023/07/20 19:09:33;;;;;;;8.07;1.40;;;25.00;59.30;;;24.06;45.06;99635.75;10426434;27;96894;-87
2023/07/20 19:14:37;;;;;;;5.43;1.30;;;24.90;59.80;;;23.93;44.93;99654.19;10420886;27;96569;-86
2023/07/20 19:19:41;;;;;;;2.97;1.40;;;24.80;59.90;;;23.82;45.01;99657.97;10412841;27;96800;-86
2023/07/20 19:24:46;;;;;;;2.42;1.55;;;24.70;59.90;;;23.75;44.89;99671.78;10418335;27;98412;-87
2023/07/20 19:29:51;;;;;;;2.22;1.17;;;24.60;59.80;;;23.64;44.86;99674.72;10430114;27;96749;-87
2023/07/20 19:34:54;;;;;;;2.13;1.27;;;24.50;59.80;;;23.53;44.97;99681.16;10415285;27;96651;-86
2023/07/20 19:39:58;;;;;;;2.25;1.50;;;24.50;59.90;;;23.42;44.97;99683.03;10429639;27;96635;-86
2023/07/20 19:45:02;;;;;;;4.25;1.58;;;24.30;59.90;;;23.35;45.29;99690.59;10426000;27;97360;-87
2023/07/20 19:50:07;;;;;;;4.53;1.30;;;24.30;60.00;;;23.30;45.10;99690.56;10419031;27;97220;-86
2023/07/20 19:55:10;;;;;;;2.05;1.30;;;24.20;60.00;;;23.23;45.10;99694.31;10444881;27;96869;-86
2023/07/20 20:00:17;;;;;;;2.35;1.70;;;24.10;60.00;;;23.24;45.74;99706.78;10427911;27;98385;-86
2023/07/20 20:05:42;;;;;;;4.50;1.77;;;24.10;60.00;;;23.18;45.85;99710.56;10433806;27;96566;-86
2023/07/20 20:10:46;;;;;;;4.43;1.85;;;24.10;60.50;;;23.09;46.69;99705.88;10434819;27;96699;-86
2023/07/20 20:15:54;;;;;;;3.70;1.98;;;24.00;61.10;;;23.00;47.75;99716.41;10433309;27;98269;-86
2023/07/20 20:20:58;;;;;;;2.22;1.52;;;23.90;61.80;;;22.77;48.66;99714.03;10416591;27;96912;-86
2023/07/20 20:26:02;;;;;;;5.80;1.80;;;23.70;62.70;;;22.56;49.53;99719.31;10466219;27;96652;-86
2023/07/20 20:31:06;;;;;;;3.22;2.00;;;23.50;63.40;;;22.34;49.84;99707.72;10435954;27;96626;-85
2023/07/20 20:36:10;;;;;;;5.00;1.40;;;23.30;63.90;;;22.18;50.32;99710.28;10418040;27;96635;-85
2023/07/20 20:41:14;;;;;;;4.03;1.60;;;23.10;64.30;;;21.99;50.59;99711.69;10442942;27;98132;-85
2023/07/20 20:46:20;;;;;;;5.13;1.48;;;22.80;64.60;;;21.76;50.85;99712.78;10433732;27;96862;-86
2023/07/20 20:51:24;;;;;;;5.88;1.90;;;22.70;65.10;;;21.62;51.69;99714.25;10445405;27;96869;-86
2023/07/20 20:56:27;;;;;;;3.78;1.58;;;22.50;65.60;;;21.50;51.89;99714.38;10434829;27;98299;-85
2023/07/20 21:01:34;;;;;;;3.42;1.80;;;22.30;66.00;;;21.37;52.54;99714.75;10429959;27;96701;-86
2023/07/20 21:06:38;;;;;;;8.77;1.85;;;22.20;66.60;;;21.25;52.99;99727.53;10445501;27;96589;-85
2023/07/20 21:11:42;;;;;;;3.50;1.67;;;22.10;66.90;;;21.09;54.11;99711.09;10419161;27;96745;-85